Time;durP1;ratioP1;P1;durP2;ratioP2;P2;SDS_P1;SDS_P2;PMS_P1;PMS_P2;Temp;Humidity;BMP_temperature;BMP_pressure;BME280_temperature;BME280_humidity;BME280_pressure;Samples;Min_cycle;Max_cycle;Signal;HPM_P1;HPM_P2
2021/06/28 00:02:07;;;;;;;14.20;9.48;;;25.80;54.80;;;;;;6118848;28;81007;-67
2021/06/28 00:05:08;;;;;;;12.57;8.68;;;25.80;54.90;;;;;;6139626;28;80624;-68
2021/06/28 00:08:08;;;;;;;13.50;9.50;;;25.80;55.00;;;;;;6131400;28;80785;-67
2021/06/28 00:11:09;;;;;;;11.85;9.02;;;25.70;55.00;;;;;;6101045;28;80077;-69
2021/06/28 00:14:10;;;;;;;12.80;9.93;;;25.70;55.10;;;;;;6123740;28;80969;-68
2021/06/28 00:17:10;;;;;;;13.90;10.80;;;25.70;55.20;;;;;;6105335;28;81340;-71
2021/06/28 00:20:11;;;;;;;15.23;9.93;;;25.70;55.30;;;;;;6118829;28;83291;-70
2021/06/28 00:23:11;;;;;;;15.63;10.88;;;25.70;55.40;;;;;;6115485;28;83093;-69
2021/06/28 00:26:12;;;;;;;14.02;10.93;;;25.60;55.40;;;;;;6117710;28;83888;-69
2021/06/28 00:29:12;;;;;;;12.65;9.55;;;25.60;55.40;;;;;;6134573;28;83274;-69
2021/06/28 00:32:13;;;;;;;11.52;9.50;;;25.60;55.30;;;;;;6133776;28;83011;-70
2021/06/28 00:35:13;;;;;;;15.00;9.35;;;25.60;55.00;;;;;;6138585;28;80538;-70
2021/06/28 00:38:14;;;;;;;11.50;8.85;;;25.60;54.90;;;;;;6126404;28;80887;-70
2021/06/28 00:41:14;;;;;;;12.82;9.32;;;25.60;55.40;;;;;;6132533;28;80886;-71
2021/06/28 00:44:15;;;;;;;10.90;9.05;;;25.70;54.80;;;;;;6130416;28;81825;-71
2021/06/28 00:47:15;;;;;;;11.13;8.43;;;25.70;54.80;;;;;;6132678;28;80450;-71
2021/06/28 00:50:16;;;;;;;9.63;8.63;;;25.70;54.70;;;;;;6129879;28;80617;-70
2021/06/28 00:53:16;;;;;;;9.60;8.60;;;25.80;54.60;;;;;;6128681;28;80397;-71
2021/06/28 00:56:17;;;;;;;10.05;8.07;;;25.80;54.60;;;;;;6127839;28;80543;-71
2021/06/28 00:59:18;;;;;;;10.02;7.32;;;25.80;54.30;;;;;;6123686;28;82238;-71
2021/06/28 01:02:18;;;;;;;10.43;7.90;;;25.80;54.40;;;;;;6132241;28;80561;-71
2021/06/28 01:05:19;;;;;;;13.05;8.27;;;25.80;54.40;;;;;;6130034;28;80333;-71
2021/06/28 01:08:19;;;;;;;12.20;8.70;;;25.70;54.30;;;;;;6125923;28;80848;-70
2021/06/28 01:11:20;;;;;;;11.00;7.88;;;25.70;54.40;;;;;;6140975;28;80515;-69
2021/06/28 01:14:20;;;;;;;9.68;7.57;;;25.70;54.40;;;;;;6135635;28;81781;-68
2021/06/28 01:17:21;;;;;;;11.23;7.50;;;25.70;54.30;;;;;;6130362;28;80739;-68
2021/06/28 01:20:21;;;;;;;10.35;8.27;;;25.60;54.10;;;;;;6137757;28;83385;-69
2021/06/28 01:23:22;;;;;;;9.90;7.70;;;25.50;54.00;;;;;;6134274;28;80137;-68
2021/06/28 01:26:22;;;;;;;9.77;8.10;;;25.50;54.20;;;;;;6136306;28;80445;-68
2021/06/28 01:29:23;;;;;;;9.27;7.13;;;25.50;54.20;;;;;;6134705;28;80508;-69
2021/06/28 01:32:23;;;;;;;10.18;8.10;;;25.50;54.10;;;;;;6132333;28;80386;-69
2021/06/28 01:35:24;;;;;;;10.50;7.82;;;25.60;54.20;;;;;;6138181;28;80118;-68
2021/06/28 01:38:24;;;;;;;11.00;8.35;;;25.60;54.00;;;;;;6138034;28;80483;-68
2021/06/28 01:41:25;;;;;;;10.38;8.55;;;25.60;54.00;;;;;;6135158;28;80652;-70
2021/06/28 01:44:25;;;;;;;10.73;8.38;;;25.60;54.00;;;;;;6136586;28;80832;-70
2021/06/28 01:47:26;;;;;;;12.55;8.02;;;25.60;54.00;;;;;;6124526;28;80620;-71
2021/06/28 01:50:26;;;;;;;10.80;8.52;;;25.60;54.00;;;;;;6135715;28;80429;-71
2021/06/28 01:53:27;;;;;;;8.80;7.63;;;25.70;54.50;;;;;;6126748;28;84190;-70
2021/06/28 01:56:27;;;;;;;10.55;7.68;;;25.70;53.90;;;;;;6127212;28;80773;-70
2021/06/28 01:59:29;;;;;;;11.88;7.88;;;25.70;53.90;;;;;;6127141;28;80419;-70
2021/06/28 02:02:30;;;;;;;10.45;7.40;;;25.70;53.90;;;;;;6125285;28;80588;-69
2021/06/28 02:05:30;;;;;;;13.13;7.78;;;25.80;53.80;;;;;;6132915;28;83390;-69
2021/06/28 02:08:31;;;;;;;11.25;7.70;;;25.70;53.60;;;;;;6125913;28;80580;-69
2021/06/28 02:11:31;;;;;;;9.85;7.95;;;25.70;53.60;;;;;;6130165;28;81440;-69
2021/06/28 02:14:32;;;;;;;11.30;8.35;;;25.60;53.50;;;;;;6133433;28;80596;-69
2021/06/28 02:17:32;;;;;;;9.30;7.88;;;25.60;53.60;;;;;;6131442;28;80838;-69
2021/06/28 02:20:33;;;;;;;8.05;7.13;;;25.60;53.40;;;;;;6125109;28;80550;-69
2021/06/28 02:23:33;;;;;;;8.95;7.13;;;25.60;53.40;;;;;;6125759;28;80404;-69
2021/06/28 02:26:34;;;;;;;9.23;7.40;;;25.60;53.50;;;;;;6131125;28;80228;-68
2021/06/28 02:29:34;;;;;;;11.52;8.73;;;25.60;53.40;;;;;;6132575;28;80794;-68
2021/06/28 02:32:35;;;;;;;9.07;7.70;;;25.50;53.40;;;;;;6130818;28;80495;-68
2021/06/28 02:35:35;;;;;;;9.65;7.85;;;25.50;53.50;;;;;;6124474;28;80357;-69
2021/06/28 02:38:36;;;;;;;9.38;7.32;;;25.40;53.50;;;;;;6131626;28;80563;-68
2021/06/28 02:41:37;;;;;;;11.63;7.57;;;25.40;53.60;;;;;;6132868;28;80494;-68
2021/06/28 02:44:38;;;;;;;10.63;7.38;;;25.50;53.30;;;;;;6131662;28;81443;-69
2021/06/28 02:47:38;;;;;;;10.07;8.07;;;25.50;53.30;;;;;;6129950;28;81676;-68
2021/06/28 02:50:39;;;;;;;12.45;7.53;;;25.50;53.30;;;;;;6128084;28;82741;-70
2021/06/28 02:53:39;;;;;;;11.20;8.18;;;25.50;53.20;;;;;;6123553;28;80899;-70
2021/06/28 02:56:40;;;;;;;9.27;7.47;;;25.50;53.10;;;;;;6127973;28;80455;-70
2021/06/28 02:59:40;;;;;;;12.27;7.60;;;25.50;53.00;;;;;;6136367;28;80532;-71
2021/06/28 03:02:41;;;;;;;9.45;7.63;;;25.60;52.90;;;;;;6134993;28;81082;-71
2021/06/28 03:05:41;;;;;;;9.30;8.00;;;25.60;53.00;;;;;;6131792;28;80250;-71
2021/06/28 03:08:42;;;;;;;12.60;8.32;;;25.50;52.90;;;;;;6135065;28;80917;-72
2021/06/28 03:11:42;;;;;;;9.48;7.80;;;25.50;53.10;;;;;;6159515;28;80491;-70
2021/06/28 03:14:43;;;;;;;9.30;8.05;;;25.40;53.10;;;;;;6135280;28;81038;-69
2021/06/28 03:17:43;;;;;;;8.63;7.53;;;25.40;53.10;;;;;;6133406;28;82940;-69
2021/06/28 03:20:44;;;;;;;10.38;7.78;;;25.50;53.20;;;;;;6139830;28;80149;-70
2021/06/28 03:23:44;;;;;;;10.23;7.57;;;25.50;53.10;;;;;;6130805;28;83661;-70
2021/06/28 03:26:45;;;;;;;12.35;7.57;;;25.50;53.10;;;;;;6138313;28;81552;-69
2021/06/28 03:29:45;;;;;;;11.25;8.10;;;25.60;53.20;;;;;;6134821;28;80846;-69
2021/06/28 03:32:46;;;;;;;10.45;8.18;;;25.50;53.20;;;;;;6135262;28;80719;-68
2021/06/28 03:35:46;;;;;;;9.38;7.53;;;25.50;53.20;;;;;;6132259;28;84754;-69
2021/06/28 03:38:47;;;;;;;11.40;8.90;;;25.60;53.10;;;;;;6135471;28;80397;-70
2021/06/28 03:41:47;;;;;;;12.48;8.38;;;25.50;53.20;;;;;;6133540;28;80616;-69
2021/06/28 03:44:48;;;;;;;8.80;7.90;;;25.50;53.20;;;;;;6133293;28;80348;-70
2021/06/28 03:47:48;;;;;;;11.40;8.05;;;25.40;53.40;;;;;;6138293;28;80980;-69
2021/06/28 03:50:51;;;;;;;15.30;8.02;;;25.50;53.40;;;;;;6136175;28;80247;-71
2021/06/28 03:53:52;;;;;;;12.60;7.78;;;25.50;53.30;;;;;;6130601;28;80293;-70
2021/06/28 03:56:53;;;;;;;13.00;8.93;;;25.60;53.40;;;;;;6134745;28;81027;-70
2021/06/28 03:59:54;;;;;;;10.48;7.95;;;25.60;53.30;;;;;;6131275;28;81218;-68
2021/06/28 04:02:56;;;;;;;13.27;8.60;;;25.60;53.40;;;;;;6132202;28;80858;-71
2021/06/28 04:06:00;;;;;;;11.68;8.27;;;25.60;53.50;;;;;;6123187;28;80604;-66
2021/06/28 04:09:00;;;;;;;14.38;8.40;;;25.60;53.70;;;;;;6132701;28;81053;-69
2021/06/28 04:12:01;;;;;;;18.08;8.52;;;25.70;53.80;;;;;;6136001;28;80751;-69
2021/06/28 04:15:01;;;;;;;14.80;7.88;;;25.70;54.10;;;;;;6127975;28;80720;-68
2021/06/28 04:18:02;;;;;;;10.32;8.00;;;25.70;54.30;;;;;;6129118;28;82043;-67
2021/06/28 04:21:02;;;;;;;10.50;8.80;;;25.70;54.50;;;;;;6132041;28;81660;-67
2021/06/28 04:24:04;;;;;;;15.20;9.63;;;25.70;53.80;;;;;;6136823;28;80178;-73
2021/06/28 04:27:04;;;;;;;12.43;8.75;;;25.70;53.90;;;;;;6129077;28;81172;-70
2021/06/28 04:30:05;;;;;;;16.92;9.02;;;25.70;54.00;;;;;;6125128;28;80932;-69
2021/06/28 04:33:06;;;;;;;10.82;8.60;;;25.70;54.00;;;;;;6132134;28;81401;-69
2021/06/28 04:36:06;;;;;;;11.40;9.00;;;25.70;54.10;;;;;;6120084;28;80839;-69
2021/06/28 04:39:06;;;;;;;12.85;8.80;;;25.70;54.10;;;;;;6132639;28;81266;-68
2021/06/28 04:42:07;;;;;;;12.63;7.63;;;25.70;54.00;;;;;;6128108;28;80448;-68
2021/06/28 04:45:07;;;;;;;9.57;8.32;;;25.70;54.30;;;;;;6121992;28;80830;-68
2021/06/28 04:48:08;;;;;;;15.65;8.50;;;25.70;54.70;;;;;;6130230;28;80403;-68
2021/06/28 04:51:08;;;;;;;10.80;7.75;;;25.80;54.60;;;;;;6132567;28;81481;-67
2021/06/28 04:54:09;;;;;;;13.30;8.95;;;25.90;54.80;;;;;;6128271;28;80162;-67
2021/06/28 04:57:10;;;;;;;11.93;8.73;;;25.80;54.20;;;;;;6131011;28;81671;-68
2021/06/28 05:00:10;;;;;;;12.00;8.20;;;25.80;54.40;;;;;;6127640;28;81351;-68
2021/06/28 05:03:11;;;;;;;11.93;8.60;;;25.80;54.60;;;;;;6130149;28;81593;-69
2021/06/28 05:06:11;;;;;;;16.70;10.75;;;25.80;54.80;;;;;;6129940;28;81280;-72
2021/06/28 05:09:12;;;;;;;13.73;10.60;;;25.80;54.80;;;;;;6125685;28;84124;-70
2021/06/28 05:12:12;;;;;;;17.40;10.60;;;25.90;55.20;;;;;;6131791;28;82920;-71
2021/06/28 05:15:13;;;;;;;12.90;9.90;;;25.90;54.60;;;;;;6122145;28;83089;-72
2021/06/28 05:18:13;;;;;;;12.57;8.82;;;25.90;54.70;;;;;;6131624;28;83032;-70
2021/06/28 05:21:14;;;;;;;17.17;9.65;;;25.90;55.00;;;;;;6127915;28;80678;-68
2021/06/28 05:24:14;;;;;;;16.50;9.60;;;25.80;55.20;;;;;;6134824;28;80423;-67
2021/06/28 05:27:15;;;;;;;11.30;8.95;;;25.90;55.10;;;;;;6128420;28;81483;-67
2021/06/28 05:30:16;;;;;;;14.55;9.38;;;25.80;55.00;;;;;;6128110;28;80574;-70
2021/06/28 05:33:16;;;;;;;12.98;9.82;;;25.80;55.10;;;;;;6135588;28;81296;-73
2021/06/28 05:36:17;;;;;;;19.25;10.23;;;25.70;55.10;;;;;;6130522;28;81029;-67
2021/06/28 05:39:17;;;;;;;19.88;10.63;;;25.70;55.20;;;;;;6128350;28;82737;-72
2021/06/28 05:42:18;;;;;;;17.25;10.68;;;25.80;55.40;;;;;;6120181;28;83042;-72
2021/06/28 05:45:18;;;;;;;13.00;9.98;;;25.80;55.50;;;;;;6123154;28;83040;-67
2021/06/28 05:48:19;;;;;;;11.45;9.98;;;25.80;55.60;;;;;;6128226;28;83094;-69
2021/06/28 05:51:19;;;;;;;12.13;9.43;;;25.80;55.50;;;;;;6129602;28;83302;-68
2021/06/28 05:54:20;;;;;;;12.13;8.73;;;25.80;55.50;;;;;;6126223;28;83536;-68
2021/06/28 05:57:24;;;;;;;9.32;7.82;;;25.90;55.70;;;;;;6127864;28;80299;-67
2021/06/28 06:00:25;;;;;;;10.20;7.93;;;25.90;55.50;;;;;;6127268;28;81810;-71
2021/06/28 06:03:25;;;;;;;12.13;7.97;;;25.90;55.40;;;;;;6133070;28;80809;-68
2021/06/28 06:06:26;;;;;;;15.20;10.07;;;25.90;55.70;;;;;;6133010;28;81168;-72
2021/06/28 06:09:26;;;;;;;21.00;9.68;;;25.90;55.40;;;;;;6132749;28;83228;-71
2021/06/28 06:12:27;;;;;;;11.98;9.73;;;25.90;55.40;;;;;;6133521;28;85549;-72
2021/06/28 06:15:27;;;;;;;11.93;9.52;;;25.90;55.20;;;;;;6134313;28;81832;-71
2021/06/28 06:18:28;;;;;;;9.90;8.90;;;25.90;55.20;;;;;;6129459;28;80466;-70
2021/06/28 06:21:28;;;;;;;10.93;8.88;;;25.90;55.20;;;;;;6126643;28;80395;-72
2021/06/28 06:24:29;;;;;;;13.70;8.48;;;25.90;55.00;;;;;;6130196;28;80427;-71
2021/06/28 06:27:30;;;;;;;15.13;9.18;;;25.90;55.30;;;;;;6131772;28;80589;-71
2021/06/28 06:30:30;;;;;;;9.85;8.00;;;25.90;55.00;;;;;;6122191;28;80373;-72
2021/06/28 06:33:31;;;;;;;10.35;8.50;;;25.90;55.10;;;;;;6133103;28;81653;-71
2021/06/28 06:36:31;;;;;;;10.45;7.70;;;25.90;55.40;;;;;;6133532;28;80881;-70
2021/06/28 06:39:32;;;;;;;13.27;8.30;;;26.00;55.00;;;;;;6131544;28;82321;-70
2021/06/28 06:42:32;;;;;;;10.68;7.90;;;26.00;54.60;;;;;;6134324;28;80861;-72
2021/06/28 06:45:33;;;;;;;10.50;7.20;;;26.00;54.30;;;;;;6134878;28;80738;-74
2021/06/28 06:48:33;;;;;;;9.40;7.63;;;26.00;54.00;;;;;;6133262;28;80502;-71
2021/06/28 06:51:34;;;;;;;8.07;6.93;;;26.00;53.80;;;;;;6134118;28;80627;-73
2021/06/28 06:54:34;;;;;;;10.82;7.40;;;26.00;53.80;;;;;;6134850;28;82094;-72
2021/06/28 06:57:35;;;;;;;17.80;8.45;;;26.00;53.60;;;;;;6132653;28;80632;-70
2021/06/28 07:00:35;;;;;;;17.00;11.57;;;26.10;53.70;;;;;;6130659;28;81218;-70
2021/06/28 07:03:36;;;;;;;14.05;9.93;;;26.10;53.50;;;;;;6130085;28;83301;-72
2021/06/28 07:06:36;;;;;;;13.73;8.90;;;26.10;53.10;;;;;;6131974;28;84390;-71
2021/06/28 07:09:37;;;;;;;15.80;9.43;;;26.10;53.10;;;;;;6134342;28;80787;-70
2021/06/28 07:12:37;;;;;;;16.70;8.52;;;26.10;53.00;;;;;;6134354;28;81678;-70
2021/06/28 07:15:38;;;;;;;12.50;8.32;;;26.10;52.80;;;;;;6111709;28;81556;-72
2021/06/28 07:18:38;;;;;;;14.85;8.15;;;26.20;53.00;;;;;;6129763;28;80450;-72
2021/06/28 07:21:39;;;;;;;9.73;7.30;;;26.20;52.50;;;;;;6129933;28;81686;-72
2021/06/28 07:24:39;;;;;;;13.07;7.28;;;26.20;51.80;;;;;;6135533;28;80723;-73
2021/06/28 07:27:40;;;;;;;8.52;6.72;;;26.20;51.40;;;;;;6130959;28;81453;-73
2021/06/28 07:30:41;;;;;;;9.70;6.85;;;26.20;51.30;;;;;;6131529;28;80948;-73
2021/06/28 07:33:42;;;;;;;11.40;6.55;;;26.20;51.10;;;;;;6131779;28;81507;-72
2021/06/28 07:36:42;;;;;;;8.15;7.30;;;26.20;50.90;;;;;;6126573;28;87596;-70
2021/06/28 07:39:43;;;;;;;11.80;7.70;;;26.20;50.80;;;;;;6135535;28;81427;-71
2021/06/28 07:42:43;;;;;;;8.43;7.22;;;26.30;51.00;;;;;;6131090;28;81606;-72
2021/06/28 07:45:44;;;;;;;12.95;7.45;;;26.30;50.80;;;;;;6129942;28;83754;-71
2021/06/28 07:48:44;;;;;;;15.13;7.10;;;26.30;50.60;;;;;;6136080;28;80485;-71
2021/06/28 07:51:45;;;;;;;10.95;7.38;;;26.30;50.50;;;;;;6133999;28;83051;-71
2021/06/28 07:54:45;;;;;;;13.73;7.43;;;26.30;50.60;;;;;;6128570;28;80816;-71
2021/06/28 07:57:46;;;;;;;8.00;6.65;;;26.30;50.80;;;;;;6132130;28;80841;-70
2021/06/28 08:00:46;;;;;;;9.30;6.75;;;26.30;51.10;;;;;;6150192;28;81634;-70
2021/06/28 08:03:47;;;;;;;8.68;6.55;;;26.30;50.70;;;;;;6132478;28;81652;-70
2021/06/28 08:06:48;;;;;;;9.77;6.68;;;26.30;51.30;;;;;;6135113;28;80362;-70
2021/06/28 08:09:48;;;;;;;10.85;7.65;;;26.30;50.50;;;;;;6128770;28;80778;-72
2021/06/28 08:12:49;;;;;;;12.90;7.78;;;26.30;50.20;;;;;;6128541;28;80204;-71
2021/06/28 08:15:50;;;;;;;9.50;6.72;;;26.30;50.50;;;;;;6132975;28;80753;-72
2021/06/28 08:18:52;;;;;;;9.77;7.25;;;26.40;50.20;;;;;;6134460;28;80434;-74
2021/06/28 08:21:54;;;;;;;8.40;6.55;;;26.40;50.60;;;;;;6129907;28;81553;-71
2021/06/28 08:24:54;;;;;;;10.52;7.20;;;26.40;50.60;;;;;;6131018;28;81420;-69
2021/06/28 08:27:55;;;;;;;17.85;7.32;;;26.40;50.50;;;;;;6130479;28;80757;-72
2021/06/28 08:30:56;;;;;;;12.60;7.00;;;26.40;50.30;;;;;;6132212;28;80808;-72
2021/06/28 08:33:56;;;;;;;13.25;7.00;;;26.40;50.10;;;;;;6130570;28;81383;-71
2021/06/28 08:36:57;;;;;;;8.55;6.70;;;26.40;50.10;;;;;;6133797;28;80637;-71
2021/06/28 08:39:57;;;;;;;11.00;6.72;;;26.40;49.70;;;;;;6131384;28;80271;-73
2021/06/28 08:42:58;;;;;;;9.23;6.95;;;26.40;49.60;;;;;;6125960;28;80516;-72
2021/06/28 08:45:58;;;;;;;10.00;6.93;;;26.40;49.70;;;;;;6130971;28;80424;-71
2021/06/28 08:48:59;;;;;;;10.63;6.60;;;26.40;49.80;;;;;;6129759;28;81218;-72
2021/06/28 08:52:00;;;;;;;12.43;6.93;;;26.40;50.50;;;;;;6127821;28;80484;-71
2021/06/28 08:55:00;;;;;;;12.60;7.28;;;26.40;50.00;;;;;;6133859;28;80143;-72
2021/06/28 08:58:01;;;;;;;8.55;6.78;;;26.40;49.80;;;;;;6131176;28;80775;-72
2021/06/28 09:01:01;;;;;;;11.43;7.10;;;26.40;48.90;;;;;;6108006;28;81700;-72
2021/06/28 09:04:02;;;;;;;11.55;7.30;;;26.40;49.00;;;;;;6105439;28;81726;-72
2021/06/28 09:07:02;;;;;;;12.20;7.40;;;26.40;48.50;;;;;;6130996;28;82206;-70
2021/06/28 09:10:03;;;;;;;11.77;7.50;;;26.50;48.50;;;;;;6129380;28;80425;-71
2021/06/28 09:13:03;;;;;;;11.18;7.05;;;26.40;48.30;;;;;;6127593;28;80533;-73
2021/06/28 09:16:04;;;;;;;13.52;7.50;;;26.50;48.30;;;;;;6131381;28;81653;-71
2021/06/28 09:19:05;;;;;;;8.38;6.38;;;26.50;48.10;;;;;;6132681;28;81450;-70
2021/06/28 09:22:06;;;;;;;12.02;7.10;;;26.50;48.30;;;;;;6130094;28;83154;-70
2021/06/28 09:25:07;;;;;;;11.95;7.70;;;26.50;48.30;;;;;;6132093;28;80474;-69
2021/06/28 09:28:08;;;;;;;9.73;6.93;;;26.50;48.30;;;;;;6127460;28;86048;-70
2021/06/28 09:31:09;;;;;;;14.82;7.65;;;26.50;49.00;;;;;;6131758;28;81619;-71
2021/06/28 09:34:10;;;;;;;13.88;7.35;;;26.50;48.50;;;;;;6136636;28;80896;-71
2021/06/28 09:37:10;;;;;;;13.07;7.25;;;26.50;49.10;;;;;;6132344;28;80438;-71
2021/06/28 09:40:10;;;;;;;17.13;7.32;;;26.60;48.60;;;;;;6135928;28;80307;-70
2021/06/28 09:43:11;;;;;;;13.20;7.90;;;26.60;48.40;;;;;;6133602;28;80920;-70
2021/06/28 09:46:11;;;;;;;11.65;7.72;;;26.60;47.60;;;;;;6138230;28;80366;-72
2021/06/28 09:49:12;;;;;;;11.40;7.43;;;26.60;47.70;;;;;;6134532;28;81285;-71
2021/06/28 09:52:12;;;;;;;9.35;7.25;;;26.50;48.00;;;;;;6135921;28;81005;-70
2021/06/28 09:55:13;;;;;;;11.60;7.50;;;26.60;47.90;;;;;;6135675;28;80450;-70
2021/06/28 09:58:14;;;;;;;13.07;7.45;;;26.60;47.30;;;;;;6138866;28;80349;-69
2021/06/28 10:01:14;;;;;;;10.52;7.78;;;26.60;47.30;;;;;;6134033;28;81097;-72
2021/06/28 10:04:15;;;;;;;11.32;7.45;;;26.60;47.30;;;;;;6132779;28;80423;-72
2021/06/28 10:07:15;;;;;;;12.35;8.00;;;26.60;46.80;;;;;;6137756;28;81273;-71
2021/06/28 10:10:16;;;;;;;17.40;9.10;;;26.60;47.40;;;;;;6133293;28;80662;-69
2021/06/28 10:13:16;;;;;;;12.82;7.72;;;26.60;47.60;;;;;;6133854;28;81180;-71
2021/06/28 10:16:19;;;;;;;13.82;7.80;;;26.60;47.00;;;;;;6137091;28;80281;-71
2021/06/28 10:19:19;;;;;;;16.30;8.13;;;26.60;47.10;;;;;;6134630;28;81308;-70
2021/06/28 10:22:20;;;;;;;9.20;7.60;;;26.60;47.20;;;;;;6135422;28;81057;-70
2021/06/28 10:25:20;;;;;;;13.43;7.72;;;26.60;47.40;;;;;;6135423;28;80790;-70
2021/06/28 10:28:21;;;;;;;10.52;7.72;;;26.60;48.40;;;;;;6135264;28;80642;-70
2021/06/28 10:31:21;;;;;;;14.25;8.55;;;26.60;48.00;;;;;;6135704;28;81233;-69
2021/06/28 10:34:22;;;;;;;13.38;7.53;;;26.60;48.00;;;;;;6130848;28;80645;-70
2021/06/28 10:37:22;;;;;;;9.70;7.57;;;26.70;48.10;;;;;;6136716;28;81539;-70
2021/06/28 10:40:23;;;;;;;15.68;8.65;;;26.60;48.20;;;;;;6138362;28;80293;-71
2021/06/28 10:43:23;;;;;;;9.50;7.93;;;26.70;47.90;;;;;;6134779;28;80653;-71
2021/06/28 10:46:24;;;;;;;13.40;8.90;;;26.70;47.90;;;;;;6137140;28;80775;-69
2021/06/28 10:49:24;;;;;;;11.95;8.25;;;26.70;47.30;;;;;;6132593;28;80481;-69
2021/06/28 10:52:25;;;;;;;16.05;8.50;;;26.70;47.90;;;;;;6134144;28;81505;-70
2021/06/28 10:55:25;;;;;;;8.55;6.78;;;26.70;48.20;;;;;;6136317;28;82044;-68
2021/06/28 10:58:26;;;;;;;11.20;7.60;;;26.70;48.00;;;;;;6133563;28;80590;-70
2021/06/28 11:01:26;;;;;;;11.18;8.07;;;26.70;48.40;;;;;;6132686;28;81141;-69
2021/06/28 11:04:27;;;;;;;13.30;8.60;;;26.70;47.70;;;;;;6131179;28;81477;-70
2021/06/28 11:07:28;;;;;;;13.20;8.20;;;26.70;48.10;;;;;;6134519;28;80440;-69
2021/06/28 11:10:28;;;;;;;11.63;8.18;;;26.70;48.00;;;;;;6136120;28;80430;-69
2021/06/28 11:13:38;;;;;;;17.05;8.10;;;26.70;47.90;;;;;;6129183;28;80348;-71
2021/06/28 11:16:40;;;;;;;14.57;7.78;;;26.70;48.00;;;;;;6109039;28;82018;-71
2021/06/28 11:19:40;;;;;;;11.85;7.60;;;26.80;47.70;;;;;;6113881;28;81745;-69
2021/06/28 11:22:42;;;;;;;11.60;7.50;;;26.80;47.60;;;;;;6131105;28;80668;-71
2021/06/28 11:25:42;;;;;;;10.35;7.50;;;26.80;47.60;;;;;;6136322;28;80294;-71
2021/06/28 11:28:43;;;;;;;11.93;8.10;;;26.80;48.10;;;;;;6134294;28;81476;-70
2021/06/28 11:31:43;;;;;;;12.63;8.02;;;26.90;46.50;;;;;;6135489;28;80509;-71
2021/06/28 11:34:44;;;;;;;11.77;8.32;;;26.90;46.60;;;;;;6142270;28;80681;-72
2021/06/28 11:37:44;;;;;;;9.27;7.35;;;26.90;47.30;;;;;;6134462;28;82753;-69
2021/06/28 11:40:45;;;;;;;9.45;8.00;;;26.90;47.50;;;;;;6137157;28;81384;-70
2021/06/28 11:43:46;;;;;;;13.48;7.85;;;26.90;47.30;;;;;;6134006;28;81671;-70
2021/06/28 11:46:47;;;;;;;10.52;8.38;;;26.90;47.30;;;;;;6132379;28;80948;-70
2021/06/28 11:49:48;;;;;;;11.27;7.55;;;26.90;47.40;;;;;;6135548;28;80611;-70
2021/06/28 11:52:48;;;;;;;10.85;7.55;;;26.90;47.60;;;;;;6134854;28;80106;-70
2021/06/28 11:55:49;;;;;;;14.57;8.45;;;26.90;48.00;;;;;;6131737;28;82889;-71
2021/06/28 11:58:50;;;;;;;10.10;7.80;;;26.80;47.80;;;;;;6135282;28;81028;-71
2021/06/28 12:01:51;;;;;;;11.25;8.18;;;26.90;47.70;;;;;;6131234;28;80396;-71
2021/06/28 12:04:51;;;;;;;11.35;6.82;;;26.90;47.80;;;;;;6126819;28;80623;-71
2021/06/28 12:07:52;;;;;;;9.23;7.18;;;26.90;48.40;;;;;;6127588;28;80618;-71
2021/06/28 12:10:52;;;;;;;9.68;7.13;;;26.90;48.40;;;;;;6131490;28;80173;-68
2021/06/28 12:13:53;;;;;;;9.02;7.55;;;26.90;48.20;;;;;;6132449;28;81685;-67
2021/06/28 12:16:53;;;;;;;9.88;8.07;;;26.90;48.20;;;;;;6132592;28;81159;-70
2021/06/28 12:19:54;;;;;;;18.65;9.27;;;26.90;48.30;;;;;;6131747;28;80635;-68
2021/06/28 12:22:55;;;;;;;13.15;9.23;;;26.90;48.10;;;;;;6136871;28;80745;-70
2021/06/28 12:25:55;;;;;;;9.07;7.43;;;26.90;48.00;;;;;;6134744;28;80745;-70
2021/06/28 12:28:57;;;;;;;13.63;8.20;;;26.90;47.60;;;;;;6131758;28;80521;-72
2021/06/28 12:31:58;;;;;;;14.13;8.30;;;26.90;48.10;;;;;;6125814;28;80871;-68
2021/06/28 12:34:58;;;;;;;11.70;7.82;;;26.90;47.80;;;;;;6128741;28;80583;-70
2021/06/28 12:38:00;;;;;;;10.77;7.53;;;26.90;49.30;;;;;;6136971;28;81255;-72
2021/06/28 12:41:01;;;;;;;12.25;8.38;;;26.90;48.50;;;;;;6128229;28;81745;-71
2021/06/28 12:44:01;;;;;;;13.25;8.70;;;26.90;47.80;;;;;;6127025;28;82607;-70
2021/06/28 12:47:02;;;;;;;8.65;7.47;;;26.90;47.70;;;;;;6131268;28;80380;-69
2021/06/28 12:50:02;;;;;;;11.40;8.40;;;26.90;47.60;;;;;;6129248;28;84962;-69
2021/06/28 12:53:03;;;;;;;11.70;7.80;;;26.90;47.60;;;;;;6129425;28;81076;-71
2021/06/28 12:56:04;;;;;;;13.75;7.65;;;26.90;47.70;;;;;;6131862;28;80641;-68
2021/06/28 12:59:04;;;;;;;10.63;7.28;;;26.90;47.90;;;;;;6129916;28;80519;-69
2021/06/28 13:02:05;;;;;;;10.18;7.15;;;26.90;48.10;;;;;;6129570;28;80686;-68
2021/06/28 13:05:05;;;;;;;8.88;7.80;;;26.90;48.50;;;;;;6131491;28;80706;-69
2021/06/28 13:08:06;;;;;;;10.80;8.10;;;26.90;47.90;;;;;;6127530;28;81674;-69
2021/06/28 13:11:07;;;;;;;9.15;7.30;;;26.90;48.80;;;;;;6131559;28;81473;-69
2021/06/28 13:14:09;;;;;;;11.13;7.47;;;26.90;48.50;;;;;;6133125;28;82344;-67
2021/06/28 13:17:29;;;;;;;13.60;7.45;;;26.90;48.40;;;;;;6134187;28;80387;-68
2021/06/28 13:20:30;;;;;;;13.10;7.75;;;27.00;48.30;;;;;;6137455;28;80427;-68
2021/06/28 13:23:31;;;;;;;8.95;7.50;;;26.90;49.30;;;;;;6136078;28;80665;-68
2021/06/28 13:26:32;;;;;;;10.43;7.78;;;26.80;49.70;;;;;;6135489;28;80441;-70
2021/06/28 13:29:33;;;;;;;11.32;7.95;;;26.90;49.00;;;;;;6133750;28;80653;-69
2021/06/28 13:32:33;;;;;;;12.13;8.38;;;26.90;48.50;;;;;;6132290;28;81668;-69
2021/06/28 13:35:36;;;;;;;28.73;14.88;;;26.90;48.60;;;;;;6135523;28;80232;-69
2021/06/28 13:38:36;;;;;;;130.13;50.47;;;27.00;48.50;;;;;;6132521;28;83694;-69
2021/06/28 13:41:37;;;;;;;108.90;44.70;;;27.00;48.20;;;;;;6130721;28;82970;-68
2021/06/28 13:44:37;;;;;;;115.97;48.22;;;27.00;48.40;;;;;;6128840;28;88655;-69
2021/06/28 13:47:38;;;;;;;131.30;51.80;;;27.00;48.40;;;;;;6136310;28;86073;-68
2021/06/28 13:50:39;;;;;;;94.47;38.92;;;27.00;48.70;;;;;;6131161;28;84833;-70
2021/06/28 13:53:39;;;;;;;67.63;28.67;;;26.90;49.00;;;;;;6117529;28;83102;-71
2021/06/28 13:56:40;;;;;;;55.97;24.17;;;26.90;49.20;;;;;;6104833;28;84257;-69
2021/06/28 13:59:40;;;;;;;33.95;17.35;;;26.90;48.70;;;;;;6109140;28;83700;-70
2021/06/28 14:02:41;;;;;;;28.42;15.50;;;27.00;48.70;;;;;;6101002;28;84097;-69
2021/06/28 14:05:41;;;;;;;27.58;12.75;;;26.90;49.10;;;;;;6102511;28;83457;-69
2021/06/28 14:08:42;;;;;;;18.45;11.35;;;26.90;49.10;;;;;;6107557;28;83023;-69
2021/06/28 14:11:42;;;;;;;17.55;9.55;;;27.00;48.80;;;;;;6118243;28;84267;-71
2021/06/28 14:14:43;;;;;;;17.60;9.45;;;27.00;48.50;;;;;;6131087;28;81805;-67
2021/06/28 14:17:44;;;;;;;16.15;8.95;;;27.00;48.30;;;;;;6129693;28;80708;-69
2021/06/28 14:20:44;;;;;;;13.15;8.73;;;27.00;48.10;;;;;;6134219;28;80359;-68
2021/06/28 14:23:45;;;;;;;15.68;8.55;;;27.00;48.40;;;;;;6133840;28;80936;-68
2021/06/28 14:26:45;;;;;;;10.70;7.82;;;27.00;48.40;;;;;;6135898;28;81522;-69
2021/06/28 14:29:46;;;;;;;9.88;7.30;;;27.00;48.60;;;;;;6130021;28;80845;-69
2021/06/28 14:32:47;;;;;;;10.20;7.35;;;27.00;48.80;;;;;;6116011;28;80690;-68
2021/06/28 14:35:48;;;;;;;13.32;7.95;;;27.00;48.30;;;;;;6109460;28;80244;-69
2021/06/28 14:38:48;;;;;;;10.55;7.32;;;27.00;48.10;;;;;;6118262;28;81166;-69
2021/06/28 14:41:49;;;;;;;13.60;7.35;;;27.00;48.30;;;;;;6115548;28;81653;-69
2021/06/28 14:44:50;;;;;;;10.00;6.95;;;27.00;48.80;;;;;;6127394;28;80829;-68
2021/06/28 14:47:52;;;;;;;9.73;7.50;;;26.90;49.50;;;;;;6132991;28;80390;-69
2021/06/28 14:50:53;;;;;;;11.43;7.47;;;26.90;49.40;;;;;;6129883;28;81094;-69
2021/06/28 14:53:53;;;;;;;11.52;6.93;;;27.00;49.80;;;;;;6126260;28;80119;-68
2021/06/28 14:56:54;;;;;;;11.88;7.38;;;27.00;49.90;;;;;;6112893;28;80434;-69
2021/06/28 14:59:55;;;;;;;11.95;7.43;;;27.00;50.40;;;;;;6120266;28;80558;-68
2021/06/28 15:02:55;;;;;;;12.40;6.95;;;27.10;50.80;;;;;;6134851;28;81064;-66
2021/06/28 15:05:57;;;;;;;15.25;7.38;;;27.10;51.10;;;;;;6131458;28;81224;-69
2021/06/28 15:08:57;;;;;;;9.73;7.43;;;27.00;50.80;;;;;;6167709;28;80452;-73
2021/06/28 15:11:58;;;;;;;11.35;6.75;;;27.10;51.00;;;;;;6134187;28;81591;-72
2021/06/28 15:14:58;;;;;;;12.63;8.07;;;27.00;51.50;;;;;;6136355;28;80836;-71
2021/06/28 15:17:59;;;;;;;14.82;8.30;;;27.00;49.60;;;;;;6135211;28;80479;-71
2021/06/28 15:20:59;;;;;;;15.73;7.80;;;27.00;50.00;;;;;;6131690;28;80616;-71
2021/06/28 15:24:00;;;;;;;17.88;7.55;;;27.00;49.60;;;;;;6133860;28;81470;-71
2021/06/28 15:27:00;;;;;;;10.75;7.55;;;27.00;49.30;;;;;;6130220;28;80852;-71
2021/06/28 15:30:01;;;;;;;11.27;7.47;;;27.00;49.40;;;;;;6131104;28;80845;-71